sensor_id;sensor_type;location;lat;lon;timestamp;P1;durP1;ratioP1;P2;durP2;ratioP2
79212;SDS011;68639;52.380;9.822;2024-01-27T00:01:11;25.87;;;3.80;;
79212;SDS011;68639;52.380;9.822;2024-01-27T00:03:36;30.27;;;4.10;;
79212;SDS011;68639;52.380;9.822;2024-01-27T00:06:01;26.67;;;4.07;;
79212;SDS011;68639;52.380;9.822;2024-01-27T00:08:27;33.37;;;4.10;;
79212;SDS011;68639;52.380;9.822;2024-01-27T00:10:52;26.67;;;3.40;;
79212;SDS011;68639;52.380;9.822;2024-01-27T00:13:17;32.90;;;4.47;;
79212;SDS011;68639;52.380;9.822;2024-01-27T00:15:43;30.27;;;3.43;;
79212;SDS011;68639;52.380;9.822;2024-01-27T00:18:08;25.90;;;3.97;;
79212;SDS011;68639;52.380;9.822;2024-01-27T00:20:33;34.07;;;3.50;;
79212;SDS011;68639;52.380;9.822;2024-01-27T00:22:58;26.07;;;3.67;;
79212;SDS011;68639;52.380;9.822;2024-01-27T00:25:23;27.13;;;3.87;;
79212;SDS011;68639;52.380;9.822;2024-01-27T00:27:49;29.33;;;4.63;;
79212;SDS011;68639;52.380;9.822;2024-01-27T00:30:14;37.57;;;4.33;;
79212;SDS011;68639;52.380;9.822;2024-01-27T00:32:39;28.17;;;3.60;;
79212;SDS011;68639;52.380;9.822;2024-01-27T00:35:04;35.53;;;4.77;;
79212;SDS011;68639;52.380;9.822;2024-01-27T00:37:30;26.73;;;3.60;;
79212;SDS011;68639;52.380;9.822;2024-01-27T00:39:55;27.60;;;3.97;;
79212;SDS011;68639;52.380;9.822;2024-01-27T00:42:20;34.23;;;4.43;;
79212;SDS011;68639;52.380;9.822;2024-01-27T00:44:49;26.83;;;3.87;;
79212;SDS011;68639;52.380;9.822;2024-01-27T00:47:14;35.60;;;4.07;;
79212;SDS011;68639;52.380;9.822;2024-01-27T00:49:39;34.77;;;4.47;;
79212;SDS011;68639;52.380;9.822;2024-01-27T00:52:05;33.87;;;4.20;;
79212;SDS011;68639;52.380;9.822;2024-01-27T00:54:30;28.30;;;4.10;;
79212;SDS011;68639;52.380;9.822;2024-01-27T00:56:55;29.97;;;4.20;;
79212;SDS011;68639;52.380;9.822;2024-01-27T00:59:20;30.33;;;4.83;;
79212;SDS011;68639;52.380;9.822;2024-01-27T01:01:45;27.30;;;4.10;;
79212;SDS011;68639;52.380;9.822;2024-01-27T01:04:11;34.17;;;4.73;;
79212;SDS011;68639;52.380;9.822;2024-01-27T01:06:38;30.30;;;4.47;;
79212;SDS011;68639;52.380;9.822;2024-01-27T01:09:03;32.93;;;4.17;;
79212;SDS011;68639;52.380;9.822;2024-01-27T01:11:29;36.93;;;4.73;;
79212;SDS011;68639;52.380;9.822;2024-01-27T01:13:54;31.50;;;4.63;;
79212;SDS011;68639;52.380;9.822;2024-01-27T01:16:19;32.17;;;4.20;;
79212;SDS011;68639;52.380;9.822;2024-01-27T01:18:45;43.27;;;5.50;;
79212;SDS011;68639;52.380;9.822;2024-01-27T01:21:10;33.60;;;4.43;;
79212;SDS011;68639;52.380;9.822;2024-01-27T01:23:35;37.43;;;4.53;;
79212;SDS011;68639;52.380;9.822;2024-01-27T01:26:00;27.27;;;3.33;;
79212;SDS011;68639;52.380;9.822;2024-01-27T01:28:26;33.10;;;4.07;;
79212;SDS011;68639;52.380;9.822;2024-01-27T01:30:51;33.17;;;4.37;;
79212;SDS011;68639;52.380;9.822;2024-01-27T01:33:16;33.07;;;4.63;;
79212;SDS011;68639;52.380;9.822;2024-01-27T01:35:41;36.70;;;4.47;;
79212;SDS011;68639;52.380;9.822;2024-01-27T01:38:06;27.63;;;3.87;;
79212;SDS011;68639;52.380;9.822;2024-01-27T01:40:31;38.00;;;4.40;;
79212;SDS011;68639;52.380;9.822;2024-01-27T01:42:58;36.43;;;4.67;;
79212;SDS011;68639;52.380;9.822;2024-01-27T01:45:23;34.10;;;4.60;;
79212;SDS011;68639;52.380;9.822;2024-01-27T01:47:49;34.40;;;5.27;;
79212;SDS011;68639;52.380;9.822;2024-01-27T01:50:14;30.10;;;4.37;;
79212;SDS011;68639;52.380;9.822;2024-01-27T01:52:39;37.20;;;4.50;;
79212;SDS011;68639;52.380;9.822;2024-01-27T01:55:04;38.10;;;5.13;;
79212;SDS011;68639;52.380;9.822;2024-01-27T01:57:30;31.37;;;5.00;;
79212;SDS011;68639;52.380;9.822;2024-01-27T01:59:55;34.70;;;5.80;;
79212;SDS011;68639;52.380;9.822;2024-01-27T02:02:20;33.97;;;4.87;;
79212;SDS011;68639;52.380;9.822;2024-01-27T02:04:46;33.10;;;5.43;;
79212;SDS011;68639;52.380;9.822;2024-01-27T02:07:11;41.47;;;5.33;;
79212;SDS011;68639;52.380;9.822;2024-01-27T02:09:37;31.97;;;4.50;;
79212;SDS011;68639;52.380;9.822;2024-01-27T02:12:02;41.33;;;5.10;;
79212;SDS011;68639;52.380;9.822;2024-01-27T02:14:27;28.73;;;4.70;;
79212;SDS011;68639;52.380;9.822;2024-01-27T02:16:53;39.90;;;5.97;;
79212;SDS011;68639;52.380;9.822;2024-01-27T02:19:18;35.73;;;5.13;;
79212;SDS011;68639;52.380;9.822;2024-01-27T02:21:43;35.77;;;5.23;;
79212;SDS011;68639;52.380;9.822;2024-01-27T02:24:08;31.73;;;4.97;;
79212;SDS011;68639;52.380;9.822;2024-01-27T02:26:35;27.23;;;4.40;;
79212;SDS011;68639;52.380;9.822;2024-01-27T02:29:00;32.47;;;5.50;;
79212;SDS011;68639;52.380;9.822;2024-01-27T02:31:25;39.07;;;4.53;;
79212;SDS011;68639;52.380;9.822;2024-01-27T02:33:50;33.50;;;4.40;;
79212;SDS011;68639;52.380;9.822;2024-01-27T02:36:15;42.80;;;5.63;;
79212;SDS011;68639;52.380;9.822;2024-01-27T02:38:41;32.83;;;4.93;;
79212;SDS011;68639;52.380;9.822;2024-01-27T02:41:06;42.80;;;5.50;;
79212;SDS011;68639;52.380;9.822;2024-01-27T02:43:31;42.70;;;5.23;;
79212;SDS011;68639;52.380;9.822;2024-01-27T02:45:56;30.40;;;5.00;;
79212;SDS011;68639;52.380;9.822;2024-01-27T02:48:21;29.63;;;4.60;;
79212;SDS011;68639;52.380;9.822;2024-01-27T02:50:47;35.33;;;5.20;;
79212;SDS011;68639;52.380;9.822;2024-01-27T02:53:12;39.63;;;5.67;;
79212;SDS011;68639;52.380;9.822;2024-01-27T02:55:37;41.20;;;6.00;;
79212;SDS011;68639;52.380;9.822;2024-01-27T02:58:02;34.17;;;4.93;;
79212;SDS011;68639;52.380;9.822;2024-01-27T03:00:27;44.43;;;5.57;;
79212;SDS011;68639;52.380;9.822;2024-01-27T03:02:53;36.90;;;6.13;;
79212;SDS011;68639;52.380;9.822;2024-01-27T03:05:19;41.30;;;5.63;;
79212;SDS011;68639;52.380;9.822;2024-01-27T03:07:44;40.70;;;5.30;;
79212;SDS011;68639;52.380;9.822;2024-01-27T03:10:10;31.63;;;5.33;;
79212;SDS011;68639;52.380;9.822;2024-01-27T03:12:36;30.97;;;4.40;;
79212;SDS011;68639;52.380;9.822;2024-01-27T03:15:01;29.93;;;4.87;;
79212;SDS011;68639;52.380;9.822;2024-01-27T03:17:26;34.23;;;5.47;;
79212;SDS011;68639;52.380;9.822;2024-01-27T03:19:51;29.60;;;4.80;;
79212;SDS011;68639;52.380;9.822;2024-01-27T03:22:16;30.97;;;4.67;;
79212;SDS011;68639;52.380;9.822;2024-01-27T03:24:41;36.67;;;4.73;;
79212;SDS011;68639;52.380;9.822;2024-01-27T03:27:07;30.10;;;5.30;;
79212;SDS011;68639;52.380;9.822;2024-01-27T03:29:32;31.13;;;5.00;;
79212;SDS011;68639;52.380;9.822;2024-01-27T03:31:57;32.40;;;5.23;;
79212;SDS011;68639;52.380;9.822;2024-01-27T03:34:22;37.37;;;5.37;;
79212;SDS011;68639;52.380;9.822;2024-01-27T03:36:49;38.90;;;5.90;;
79212;SDS011;68639;52.380;9.822;2024-01-27T03:39:15;40.53;;;5.67;;
79212;SDS011;68639;52.380;9.822;2024-01-27T03:41:40;35.97;;;5.03;;
79212;SDS011;68639;52.380;9.822;2024-01-27T03:44:05;32.33;;;4.87;;
79212;SDS011;68639;52.380;9.822;2024-01-27T03:46:30;30.27;;;5.13;;
79212;SDS011;68639;52.380;9.822;2024-01-27T03:48:55;27.73;;;4.97;;
79212;SDS011;68639;52.380;9.822;2024-01-27T03:51:21;36.73;;;4.77;;
79212;SDS011;68639;52.380;9.822;2024-01-27T03:53:46;34.83;;;5.27;;
79212;SDS011;68639;52.380;9.822;2024-01-27T03:56:12;34.10;;;6.30;;
79212;SDS011;68639;52.380;9.822;2024-01-27T03:58:37;34.00;;;5.77;;
79212;SDS011;68639;52.380;9.822;2024-01-27T04:01:03;34.67;;;5.30;;
79212;SDS011;68639;52.380;9.822;2024-01-27T04:03:29;28.47;;;5.10;;
79212;SDS011;68639;52.380;9.822;2024-01-27T04:05:54;40.60;;;6.50;;
79212;SDS011;68639;52.380;9.822;2024-01-27T04:08:19;38.07;;;4.90;;
79212;SDS011;68639;52.380;9.822;2024-01-27T04:10:44;32.90;;;5.50;;
79212;SDS011;68639;52.380;9.822;2024-01-27T04:13:09;37.03;;;5.13;;
79212;SDS011;68639;52.380;9.822;2024-01-27T04:15:35;24.07;;;5.20;;
79212;SDS011;68639;52.380;9.822;2024-01-27T04:18:06;33.40;;;5.10;;
79212;SDS011;68639;52.380;9.822;2024-01-27T04:20:33;39.83;;;5.80;;
79212;SDS011;68639;52.380;9.822;2024-01-27T04:22:58;35.30;;;5.40;;
79212;SDS011;68639;52.380;9.822;2024-01-27T04:25:23;33.73;;;5.83;;
79212;SDS011;68639;52.380;9.822;2024-01-27T04:27:48;33.17;;;5.37;;
79212;SDS011;68639;52.380;9.822;2024-01-27T04:30:14;27.93;;;4.83;;
79212;SDS011;68639;52.380;9.822;2024-01-27T04:32:39;27.97;;;5.43;;
79212;SDS011;68639;52.380;9.822;2024-01-27T04:35:08;34.73;;;4.63;;
79212;SDS011;68639;52.380;9.822;2024-01-27T04:37:33;29.73;;;4.77;;
79212;SDS011;68639;52.380;9.822;2024-01-27T04:39:58;36.63;;;5.40;;
79212;SDS011;68639;52.380;9.822;2024-01-27T04:42:23;33.43;;;5.60;;
79212;SDS011;68639;52.380;9.822;2024-01-27T04:44:48;43.70;;;5.23;;
79212;SDS011;68639;52.380;9.822;2024-01-27T04:47:14;31.87;;;5.30;;
79212;SDS011;68639;52.380;9.822;2024-01-27T04:49:39;28.27;;;4.53;;
79212;SDS011;68639;52.380;9.822;2024-01-27T04:52:04;35.13;;;5.23;;
79212;SDS011;68639;52.380;9.822;2024-01-27T04:54:29;30.87;;;5.03;;
79212;SDS011;68639;52.380;9.822;2024-01-27T04:56:54;32.60;;;5.10;;
79212;SDS011;68639;52.380;9.822;2024-01-27T04:59:20;31.77;;;5.00;;
79212;SDS011;68639;52.380;9.822;2024-01-27T05:01:45;35.10;;;5.37;;
79212;SDS011;68639;52.380;9.822;2024-01-27T05:04:11;27.57;;;4.50;;
79212;SDS011;68639;52.380;9.822;2024-01-27T05:06:36;32.90;;;5.07;;
79212;SDS011;68639;52.380;9.822;2024-01-27T05:09:03;32.37;;;4.23;;
79212;SDS011;68639;52.380;9.822;2024-01-27T05:11:29;39.90;;;5.83;;
79212;SDS011;68639;52.380;9.822;2024-01-27T05:13:54;33.53;;;5.03;;
79212;SDS011;68639;52.380;9.822;2024-01-27T05:16:20;35.60;;;5.00;;
79212;SDS011;68639;52.380;9.822;2024-01-27T05:18:45;36.87;;;5.33;;
79212;SDS011;68639;52.380;9.822;2024-01-27T05:21:10;33.13;;;5.30;;
79212;SDS011;68639;52.380;9.822;2024-01-27T05:23:35;33.90;;;5.00;;
79212;SDS011;68639;52.380;9.822;2024-01-27T05:26:01;27.33;;;4.43;;
79212;SDS011;68639;52.380;9.822;2024-01-27T05:28:26;30.87;;;4.93;;
79212;SDS011;68639;52.380;9.822;2024-01-27T05:30:51;36.67;;;5.87;;
79212;SDS011;68639;52.380;9.822;2024-01-27T05:33:17;24.13;;;4.70;;
79212;SDS011;68639;52.380;9.822;2024-01-27T05:35:42;28.60;;;4.93;;
79212;SDS011;68639;52.380;9.822;2024-01-27T05:38:07;35.60;;;5.10;;
79212;SDS011;68639;52.380;9.822;2024-01-27T05:40:32;34.53;;;5.53;;
79212;SDS011;68639;52.380;9.822;2024-01-27T05:42:57;26.33;;;4.60;;
79212;SDS011;68639;52.380;9.822;2024-01-27T05:45:23;24.97;;;4.40;;
79212;SDS011;68639;52.380;9.822;2024-01-27T05:47:48;35.27;;;5.07;;
79212;SDS011;68639;52.380;9.822;2024-01-27T05:50:13;32.43;;;4.77;;
79212;SDS011;68639;52.380;9.822;2024-01-27T05:52:38;29.90;;;4.97;;
79212;SDS011;68639;52.380;9.822;2024-01-27T05:55:03;29.23;;;5.07;;
79212;SDS011;68639;52.380;9.822;2024-01-27T05:57:31;27.13;;;4.60;;
79212;SDS011;68639;52.380;9.822;2024-01-27T05:59:56;30.23;;;4.87;;
79212;SDS011;68639;52.380;9.822;2024-01-27T06:02:22;33.70;;;4.70;;
79212;SDS011;68639;52.380;9.822;2024-01-27T06:04:47;30.43;;;4.77;;
79212;SDS011;68639;52.380;9.822;2024-01-27T06:07:12;28.10;;;4.63;;
79212;SDS011;68639;52.380;9.822;2024-01-27T06:09:37;36.10;;;5.17;;
79212;SDS011;68639;52.380;9.822;2024-01-27T06:12:03;30.83;;;4.53;;
79212;SDS011;68639;52.380;9.822;2024-01-27T06:14:28;26.97;;;3.97;;
79212;SDS011;68639;52.380;9.822;2024-01-27T06:16:53;29.37;;;4.17;;
79212;SDS011;68639;52.380;9.822;2024-01-27T06:19:18;27.97;;;4.70;;
79212;SDS011;68639;52.380;9.822;2024-01-27T06:21:44;27.03;;;4.03;;
79212;SDS011;68639;52.380;9.822;2024-01-27T06:24:09;22.80;;;4.50;;
79212;SDS011;68639;52.380;9.822;2024-01-27T06:26:34;25.17;;;4.23;;
79212;SDS011;68639;52.380;9.822;2024-01-27T06:28:59;29.20;;;4.20;;
79212;SDS011;68639;52.380;9.822;2024-01-27T06:31:25;26.63;;;4.40;;
79212;SDS011;68639;52.380;9.822;2024-01-27T06:33:51;26.60;;;4.50;;
79212;SDS011;68639;52.380;9.822;2024-01-27T06:36:16;30.40;;;4.20;;
79212;SDS011;68639;52.380;9.822;2024-01-27T06:38:41;28.17;;;4.20;;
79212;SDS011;68639;52.380;9.822;2024-01-27T06:41:06;24.63;;;4.17;;
79212;SDS011;68639;52.380;9.822;2024-01-27T06:43:31;23.13;;;4.00;;
79212;SDS011;68639;52.380;9.822;2024-01-27T06:45:57;23.03;;;4.10;;
79212;SDS011;68639;52.380;9.822;2024-01-27T06:48:22;21.37;;;3.80;;
79212;SDS011;68639;52.380;9.822;2024-01-27T06:50:50;25.67;;;3.87;;
79212;SDS011;68639;52.380;9.822;2024-01-27T06:53:15;30.93;;;4.40;;
79212;SDS011;68639;52.380;9.822;2024-01-27T06:55:41;31.20;;;4.70;;
79212;SDS011;68639;52.380;9.822;2024-01-27T06:58:06;27.50;;;4.57;;
79212;SDS011;68639;52.380;9.822;2024-01-27T07:00:31;28.97;;;4.47;;
79212;SDS011;68639;52.380;9.822;2024-01-27T07:02:57;23.90;;;4.03;;
79212;SDS011;68639;52.380;9.822;2024-01-27T07:05:22;23.33;;;4.50;;
79212;SDS011;68639;52.380;9.822;2024-01-27T07:07:48;24.57;;;4.60;;
79212;SDS011;68639;52.380;9.822;2024-01-27T07:10:13;25.97;;;4.43;;
79212;SDS011;68639;52.380;9.822;2024-01-27T07:12:38;33.33;;;5.00;;
79212;SDS011;68639;52.380;9.822;2024-01-27T07:15:03;27.97;;;3.97;;
79212;SDS011;68639;52.380;9.822;2024-01-27T07:17:29;30.23;;;4.60;;
79212;SDS011;68639;52.380;9.822;2024-01-27T07:19:54;24.57;;;4.13;;
79212;SDS011;68639;52.380;9.822;2024-01-27T07:22:20;26.87;;;3.93;;
79212;SDS011;68639;52.380;9.822;2024-01-27T07:24:45;29.50;;;5.13;;
79212;SDS011;68639;52.380;9.822;2024-01-27T07:27:12;21.47;;;3.43;;
79212;SDS011;68639;52.380;9.822;2024-01-27T07:29:37;29.47;;;3.90;;
79212;SDS011;68639;52.380;9.822;2024-01-27T07:32:02;28.13;;;3.90;;
79212;SDS011;68639;52.380;9.822;2024-01-27T07:34:28;27.97;;;4.73;;
79212;SDS011;68639;52.380;9.822;2024-01-27T07:36:53;27.57;;;4.03;;
79212;SDS011;68639;52.380;9.822;2024-01-27T07:39:18;20.43;;;4.43;;
79212;SDS011;68639;52.380;9.822;2024-01-27T07:41:43;22.07;;;4.17;;
79212;SDS011;68639;52.380;9.822;2024-01-27T07:44:09;33.33;;;4.47;;
79212;SDS011;68639;52.380;9.822;2024-01-27T07:46:38;32.13;;;4.73;;
79212;SDS011;68639;52.380;9.822;2024-01-27T07:49:03;24.80;;;3.57;;
79212;SDS011;68639;52.380;9.822;2024-01-27T07:51:29;29.10;;;4.17;;
79212;SDS011;68639;52.380;9.822;2024-01-27T07:53:54;27.37;;;4.73;;
79212;SDS011;68639;52.380;9.822;2024-01-27T07:56:19;33.20;;;5.67;;
79212;SDS011;68639;52.380;9.822;2024-01-27T07:58:44;29.63;;;5.50;;
79212;SDS011;68639;52.380;9.822;2024-01-27T08:01:09;28.03;;;5.37;;
79212;SDS011;68639;52.380;9.822;2024-01-27T08:03:35;34.43;;;5.70;;
79212;SDS011;68639;52.380;9.822;2024-01-27T08:06:04;22.17;;;5.20;;
79212;SDS011;68639;52.380;9.822;2024-01-27T08:08:29;23.27;;;4.60;;
79212;SDS011;68639;52.380;9.822;2024-01-27T08:10:55;24.27;;;4.80;;
79212;SDS011;68639;52.380;9.822;2024-01-27T08:13:20;38.87;;;5.07;;
79212;SDS011;68639;52.380;9.822;2024-01-27T08:15:45;31.93;;;6.10;;
79212;SDS011;68639;52.380;9.822;2024-01-27T08:18:11;31.77;;;5.30;;
79212;SDS011;68639;52.380;9.822;2024-01-27T08:20:36;27.80;;;4.87;;
79212;SDS011;68639;52.380;9.822;2024-01-27T08:23:01;24.90;;;4.47;;
79212;SDS011;68639;52.380;9.822;2024-01-27T08:25:26;24.63;;;4.67;;
79212;SDS011;68639;52.380;9.822;2024-01-27T08:27:52;19.77;;;4.43;;
79212;SDS011;68639;52.380;9.822;2024-01-27T08:30:17;25.70;;;5.03;;
79212;SDS011;68639;52.380;9.822;2024-01-27T08:32:42;25.57;;;5.23;;
79212;SDS011;68639;52.380;9.822;2024-01-27T08:35:08;32.37;;;5.43;;
79212;SDS011;68639;52.380;9.822;2024-01-27T08:37:33;23.60;;;5.77;;
79212;SDS011;68639;52.380;9.822;2024-01-27T08:40:03;29.07;;;6.90;;
79212;SDS011;68639;52.380;9.822;2024-01-27T08:42:29;25.37;;;5.77;;
79212;SDS011;68639;52.380;9.822;2024-01-27T08:44:54;25.10;;;5.93;;
79212;SDS011;68639;52.380;9.822;2024-01-27T08:47:19;22.53;;;6.10;;
79212;SDS011;68639;52.380;9.822;2024-01-27T08:49:44;34.40;;;7.20;;
79212;SDS011;68639;52.380;9.822;2024-01-27T08:52:09;27.20;;;5.83;;
79212;SDS011;68639;52.380;9.822;2024-01-27T08:54:35;29.90;;;4.70;;
79212;SDS011;68639;52.380;9.822;2024-01-27T08:57:00;26.00;;;5.50;;
79212;SDS011;68639;52.380;9.822;2024-01-27T08:59:25;23.70;;;5.30;;
79212;SDS011;68639;52.380;9.822;2024-01-27T09:01:50;21.80;;;5.07;;
79212;SDS011;68639;52.380;9.822;2024-01-27T09:04:16;34.33;;;5.03;;
79212;SDS011;68639;52.380;9.822;2024-01-27T09:06:41;20.87;;;5.10;;
79212;SDS011;68639;52.380;9.822;2024-01-27T09:09:06;27.17;;;5.30;;
79212;SDS011;68639;52.380;9.822;2024-01-27T09:11:31;24.37;;;5.10;;
79212;SDS011;68639;52.380;9.822;2024-01-27T09:13:58;34.77;;;6.20;;
79212;SDS011;68639;52.380;9.822;2024-01-27T09:16:24;19.57;;;4.97;;
79212;SDS011;68639;52.380;9.822;2024-01-27T09:18:49;29.63;;;6.33;;
79212;SDS011;68639;52.380;9.822;2024-01-27T09:21:17;29.70;;;6.27;;
79212;SDS011;68639;52.380;9.822;2024-01-27T09:23:47;31.67;;;7.00;;
79212;SDS011;68639;52.380;9.822;2024-01-27T09:26:12;25.67;;;5.67;;
79212;SDS011;68639;52.380;9.822;2024-01-27T09:28:38;28.37;;;6.20;;
79212;SDS011;68639;52.380;9.822;2024-01-27T09:31:09;28.13;;;6.83;;
79212;SDS011;68639;52.380;9.822;2024-01-27T09:33:34;24.80;;;6.23;;
79212;SDS011;68639;52.380;9.822;2024-01-27T09:36:00;22.13;;;5.80;;
79212;SDS011;68639;52.380;9.822;2024-01-27T09:38:25;27.57;;;6.97;;
79212;SDS011;68639;52.380;9.822;2024-01-27T09:40:51;26.40;;;6.37;;
79212;SDS011;68639;52.380;9.822;2024-01-27T09:43:16;28.83;;;7.07;;
79212;SDS011;68639;52.380;9.822;2024-01-27T09:45:42;21.87;;;6.20;;
79212;SDS011;68639;52.380;9.822;2024-01-27T09:48:07;29.00;;;6.93;;
79212;SDS011;68639;52.380;9.822;2024-01-27T09:50:35;32.00;;;7.13;;
79212;SDS011;68639;52.380;9.822;2024-01-27T09:53:00;29.97;;;6.87;;
79212;SDS011;68639;52.380;9.822;2024-01-27T09:55:25;25.23;;;6.37;;
79212;SDS011;68639;52.380;9.822;2024-01-27T09:57:51;26.23;;;6.40;;
79212;SDS011;68639;52.380;9.822;2024-01-27T10:00:17;23.70;;;6.27;;
79212;SDS011;68639;52.380;9.822;2024-01-27T10:02:42;21.90;;;5.53;;
79212;SDS011;68639;52.380;9.822;2024-01-27T10:05:10;27.00;;;6.50;;
79212;SDS011;68639;52.380;9.822;2024-01-27T10:07:36;19.97;;;6.50;;
79212;SDS011;68639;52.380;9.822;2024-01-27T10:10:01;22.53;;;6.30;;
79212;SDS011;68639;52.380;9.822;2024-01-27T10:12:28;27.20;;;6.53;;
79212;SDS011;68639;52.380;9.822;2024-01-27T10:14:53;31.03;;;6.13;;
79212;SDS011;68639;52.380;9.822;2024-01-27T10:17:22;25.43;;;6.00;;
79212;SDS011;68639;52.380;9.822;2024-01-27T10:19:58;25.83;;;6.10;;
79212;SDS011;68639;52.380;9.822;2024-01-27T10:22:23;27.27;;;6.60;;
79212;SDS011;68639;52.380;9.822;2024-01-27T10:24:48;25.73;;;6.93;;
79212;SDS011;68639;52.380;9.822;2024-01-27T10:27:14;20.30;;;6.23;;
79212;SDS011;68639;52.380;9.822;2024-01-27T10:29:39;25.20;;;6.70;;
79212;SDS011;68639;52.380;9.822;2024-01-27T10:32:07;21.83;;;6.63;;
79212;SDS011;68639;52.380;9.822;2024-01-27T10:34:33;27.70;;;6.90;;
79212;SDS011;68639;52.380;9.822;2024-01-27T10:36:59;26.93;;;6.23;;
79212;SDS011;68639;52.380;9.822;2024-01-27T10:39:24;28.87;;;6.73;;
79212;SDS011;68639;52.380;9.822;2024-01-27T10:41:49;24.47;;;6.53;;
79212;SDS011;68639;52.380;9.822;2024-01-27T10:44:15;27.70;;;5.93;;
79212;SDS011;68639;52.380;9.822;2024-01-27T10:46:44;25.30;;;6.30;;
79212;SDS011;68639;52.380;9.822;2024-01-27T10:49:14;24.93;;;5.80;;
79212;SDS011;68639;52.380;9.822;2024-01-27T10:51:45;25.63;;;6.67;;
79212;SDS011;68639;52.380;9.822;2024-01-27T10:54:13;28.07;;;6.33;;
79212;SDS011;68639;52.380;9.822;2024-01-27T10:56:39;27.27;;;6.13;;
79212;SDS011;68639;52.380;9.822;2024-01-27T10:59:05;30.83;;;6.47;;
79212;SDS011;68639;52.380;9.822;2024-01-27T11:01:33;29.67;;;6.50;;
79212;SDS011;68639;52.380;9.822;2024-01-27T11:04:00;25.03;;;6.83;;
79212;SDS011;68639;52.380;9.822;2024-01-27T11:06:25;28.57;;;6.30;;
79212;SDS011;68639;52.380;9.822;2024-01-27T11:08:51;23.77;;;6.40;;
79212;SDS011;68639;52.380;9.822;2024-01-27T11:11:17;25.07;;;6.07;;
79212;SDS011;68639;52.380;9.822;2024-01-27T11:13:43;27.97;;;6.07;;
79212;SDS011;68639;52.380;9.822;2024-01-27T11:16:14;25.53;;;5.83;;
79212;SDS011;68639;52.380;9.822;2024-01-27T11:18:41;25.20;;;5.83;;
79212;SDS011;68639;52.380;9.822;2024-01-27T11:21:07;22.57;;;5.43;;
79212;SDS011;68639;52.380;9.822;2024-01-27T11:23:32;30.63;;;6.60;;
79212;SDS011;68639;52.380;9.822;2024-01-27T11:26:04;22.63;;;6.23;;
79212;SDS011;68639;52.380;9.822;2024-01-27T11:28:29;23.50;;;5.77;;
79212;SDS011;68639;52.380;9.822;2024-01-27T11:30:55;24.57;;;6.17;;
79212;SDS011;68639;52.380;9.822;2024-01-27T11:33:20;28.13;;;6.07;;
79212;SDS011;68639;52.380;9.822;2024-01-27T11:35:45;25.70;;;6.17;;
79212;SDS011;68639;52.380;9.822;2024-01-27T11:38:10;28.87;;;5.70;;
79212;SDS011;68639;52.380;9.822;2024-01-27T11:40:45;26.33;;;5.83;;
79212;SDS011;68639;52.380;9.822;2024-01-27T11:43:11;28.97;;;6.67;;
79212;SDS011;68639;52.380;9.822;2024-01-27T11:45:37;27.70;;;6.00;;
79212;SDS011;68639;52.380;9.822;2024-01-27T11:48:02;29.30;;;6.77;;
79212;SDS011;68639;52.380;9.822;2024-01-27T11:50:27;22.27;;;5.60;;
79212;SDS011;68639;52.380;9.822;2024-01-27T11:52:53;26.37;;;5.77;;
79212;SDS011;68639;52.380;9.822;2024-01-27T11:55:18;28.00;;;6.47;;
79212;SDS011;68639;52.380;9.822;2024-01-27T11:57:44;24.10;;;5.97;;
79212;SDS011;68639;52.380;9.822;2024-01-27T12:00:09;28.13;;;5.80;;
79212;SDS011;68639;52.380;9.822;2024-01-27T12:02:35;26.67;;;6.33;;
79212;SDS011;68639;52.380;9.822;2024-01-27T12:05:01;22.70;;;6.53;;
79212;SDS011;68639;52.380;9.822;2024-01-27T12:07:26;22.40;;;6.07;;
79212;SDS011;68639;52.380;9.822;2024-01-27T12:09:51;22.53;;;6.00;;
79212;SDS011;68639;52.380;9.822;2024-01-27T12:12:16;24.63;;;6.23;;
79212;SDS011;68639;52.380;9.822;2024-01-27T12:14:46;22.73;;;5.60;;
79212;SDS011;68639;52.380;9.822;2024-01-27T12:17:12;28.27;;;5.93;;
79212;SDS011;68639;52.380;9.822;2024-01-27T12:19:37;26.37;;;6.57;;
79212;SDS011;68639;52.380;9.822;2024-01-27T12:22:03;23.97;;;6.17;;
79212;SDS011;68639;52.380;9.822;2024-01-27T12:24:28;28.17;;;6.17;;
79212;SDS011;68639;52.380;9.822;2024-01-27T12:26:55;29.57;;;6.80;;
79212;SDS011;68639;52.380;9.822;2024-01-27T12:29:21;29.00;;;6.37;;
79212;SDS011;68639;52.380;9.822;2024-01-27T12:31:47;24.67;;;5.20;;
79212;SDS011;68639;52.380;9.822;2024-01-27T12:34:12;24.00;;;6.40;;
79212;SDS011;68639;52.380;9.822;2024-01-27T12:36:41;21.77;;;5.83;;
79212;SDS011;68639;52.380;9.822;2024-01-27T12:39:07;26.37;;;6.23;;
79212;SDS011;68639;52.380;9.822;2024-01-27T12:41:32;23.40;;;6.33;;
79212;SDS011;68639;52.380;9.822;2024-01-27T12:43:58;25.77;;;6.20;;
79212;SDS011;68639;52.380;9.822;2024-01-27T12:46:24;20.63;;;5.80;;
79212;SDS011;68639;52.380;9.822;2024-01-27T12:48:49;21.63;;;5.13;;
79212;SDS011;68639;52.380;9.822;2024-01-27T12:51:14;29.77;;;6.17;;
79212;SDS011;68639;52.380;9.822;2024-01-27T12:53:40;23.33;;;5.70;;
79212;SDS011;68639;52.380;9.822;2024-01-27T12:56:12;25.50;;;6.23;;
79212;SDS011;68639;52.380;9.822;2024-01-27T12:58:37;21.77;;;5.97;;
79212;SDS011;68639;52.380;9.822;2024-01-27T13:01:03;24.17;;;6.13;;
79212;SDS011;68639;52.380;9.822;2024-01-27T13:03:28;25.53;;;5.50;;
79212;SDS011;68639;52.380;9.822;2024-01-27T13:05:54;19.07;;;5.37;;
79212;SDS011;68639;52.380;9.822;2024-01-27T13:08:19;32.67;;;6.20;;
79212;SDS011;68639;52.380;9.822;2024-01-27T13:10:44;26.43;;;6.13;;
79212;SDS011;68639;52.380;9.822;2024-01-27T13:13:10;24.20;;;5.90;;
79212;SDS011;68639;52.380;9.822;2024-01-27T13:15:35;22.77;;;5.77;;
79212;SDS011;68639;52.380;9.822;2024-01-27T13:18:00;28.63;;;5.80;;
79212;SDS011;68639;52.380;9.822;2024-01-27T13:20:25;23.27;;;5.73;;
79212;SDS011;68639;52.380;9.822;2024-01-27T13:22:50;20.63;;;5.33;;
79212;SDS011;68639;52.380;9.822;2024-01-27T13:25:18;18.07;;;5.03;;
79212;SDS011;68639;52.380;9.822;2024-01-27T13:27:43;21.57;;;5.07;;
79212;SDS011;68639;52.380;9.822;2024-01-27T13:30:08;19.53;;;5.37;;
79212;SDS011;68639;52.380;9.822;2024-01-27T13:32:34;23.33;;;5.10;;
79212;SDS011;68639;52.380;9.822;2024-01-27T13:34:59;26.13;;;5.67;;
79212;SDS011;68639;52.380;9.822;2024-01-27T13:37:24;23.60;;;5.53;;
79212;SDS011;68639;52.380;9.822;2024-01-27T13:39:50;29.30;;;5.27;;
79212;SDS011;68639;52.380;9.822;2024-01-27T13:42:15;27.90;;;5.17;;
79212;SDS011;68639;52.380;9.822;2024-01-27T13:44:41;25.70;;;5.23;;
79212;SDS011;68639;52.380;9.822;2024-01-27T13:47:06;26.30;;;6.77;;
79212;SDS011;68639;52.380;9.822;2024-01-27T13:49:32;24.33;;;5.67;;
79212;SDS011;68639;52.380;9.822;2024-01-27T13:51:57;21.40;;;5.17;;
79212;SDS011;68639;52.380;9.822;2024-01-27T13:54:22;31.00;;;5.77;;
79212;SDS011;68639;52.380;9.822;2024-01-27T13:56:48;28.57;;;6.23;;
79212;SDS011;68639;52.380;9.822;2024-01-27T13:59:13;22.17;;;5.50;;
79212;SDS011;68639;52.380;9.822;2024-01-27T14:01:38;21.23;;;5.80;;
79212;SDS011;68639;52.380;9.822;2024-01-27T14:04:03;21.47;;;5.53;;
79212;SDS011;68639;52.380;9.822;2024-01-27T14:06:28;22.10;;;4.87;;
79212;SDS011;68639;52.380;9.822;2024-01-27T14:08:53;22.10;;;5.20;;
79212;SDS011;68639;52.380;9.822;2024-01-27T14:11:19;23.90;;;4.90;;
79212;SDS011;68639;52.380;9.822;2024-01-27T14:13:46;21.53;;;5.10;;
79212;SDS011;68639;52.380;9.822;2024-01-27T14:16:11;26.93;;;5.97;;
79212;SDS011;68639;52.380;9.822;2024-01-27T14:18:36;21.33;;;5.23;;
79212;SDS011;68639;52.380;9.822;2024-01-27T14:21:01;22.60;;;4.73;;
79212;SDS011;68639;52.380;9.822;2024-01-27T14:23:27;26.43;;;5.17;;